Time;durP1;ratioP1;P1;durP2;ratioP2;P2;SDS_P1;SDS_P2;PMS_P1;PMS_P2;Temp;Humidity;BMP_temperature;BMP_pressure;BME280_temperature;BME280_humidity;BME280_pressure;Samples;Min_cycle;Max_cycle;Signal;HPM_P1;HPM_P2
2022/08/31 00:05:58;;;;;;;3.92;1.63;;;;;;;;;;5054621;28;20581;-51
2022/08/31 00:08:25;;;;;;;7.75;1.42;;;;;;;;;;5054562;28;20214;-47
2022/08/31 00:10:54;;;;;;;7.38;1.40;;;;;;;;;;5054583;28;20211;-48
2022/08/31 00:13:22;;;;;;;3.72;1.45;;;;;;;;;;5054508;28;20242;-52
2022/08/31 00:15:50;;;;;;;3.22;1.30;;;;;;;;;;5054448;28;20211;-50
2022/08/31 00:18:18;;;;;;;6.60;1.77;;;;;;;;;;5054604;28;20211;-47
2022/08/31 00:20:45;;;;;;;3.55;1.58;;;;;;;;;;5054372;28;20196;-47
2022/08/31 00:23:14;;;;;;;3.53;1.25;;;;;;;;;;5054277;28;20559;-46
2022/08/31 00:25:45;;;;;;;2.90;1.38;;;;;;;;;;5054611;28;20200;-48
2022/08/31 00:28:13;;;;;;;4.35;1.60;;;;;;;;;;5054857;28;20188;-49
2022/08/31 00:30:40;;;;;;;3.22;1.40;;;;;;;;;;5054172;28;20710;-48
2022/08/31 00:33:07;;;;;;;2.45;1.65;;;;;;;;;;5037154;28;20207;-49
2022/08/31 00:35:35;;;;;;;1.42;1.13;;;;;;;;;;5037223;28;20291;-51
2022/08/31 00:38:04;;;;;;;3.85;1.08;;;;;;;;;;5054451;28;20552;-52
2022/08/31 00:40:31;;;;;;;4.13;1.27;;;;;;;;;;5054682;28;20219;-49
2022/08/31 00:43:11;;;;;;;4.50;1.50;;;;;;;;;;5054194;28;20228;-47
2022/08/31 00:45:38;;;;;;;3.75;1.08;;;;;;;;;;5055119;28;20204;-47
2022/08/31 00:48:05;;;;;;;2.97;1.48;;;;;;;;;;5054092;28;20696;-47
2022/08/31 00:50:33;;;;;;;1.70;1.15;;;;;;;;;;5054428;28;20299;-47
2022/08/31 00:53:00;;;;;;;2.83;1.38;;;;;;;;;;5021083;28;20223;-47
2022/08/31 00:55:33;;;;;;;1.63;1.23;;;;;;;;;;5036970;28;20262;-47
2022/08/31 00:58:04;;;;;;;4.03;1.35;;;;;;;;;;5037080;28;20204;-48
2022/08/31 01:00:31;;;;;;;4.85;1.50;;;;;;;;;;5036724;28;20199;-48
2022/08/31 01:03:00;;;;;;;2.22;1.40;;;;;;;;;;5054355;28;20595;-48
2022/08/31 01:05:29;;;;;;;3.55;1.42;;;;;;;;;;5039812;28;20208;-47
2022/08/31 01:07:58;;;;;;;6.10;1.50;;;;;;;;;;5040342;28;20214;-47
2022/08/31 01:10:31;;;;;;;3.25;1.20;;;;;;;;;;5057399;28;20208;-46
2022/08/31 01:12:59;;;;;;;4.78;1.60;;;;;;;;;;5057795;28;20251;-46
2022/08/31 01:15:28;;;;;;;2.30;1.30;;;;;;;;;;5040708;28;20204;-46
2022/08/31 01:17:58;;;;;;;3.35;1.48;;;;;;;;;;5040151;28;20296;-46
2022/08/31 01:20:35;;;;;;;4.05;1.52;;;;;;;;;;5057699;28;20254;-47
2022/08/31 01:23:07;;;;;;;2.80;1.20;;;;;;;;;;5039930;28;20220;-48
2022/08/31 01:25:36;;;;;;;3.50;1.48;;;;;;;;;;5040304;28;20212;-46
2022/08/31 01:28:05;;;;;;;2.15;1.02;;;;;;;;;;5057413;28;20586;-46
2022/08/31 01:30:33;;;;;;;1.80;1.05;;;;;;;;;;5039971;28;20199;-47
2022/08/31 01:33:00;;;;;;;3.95;1.17;;;;;;;;;;5057523;28;20507;-49
2022/08/31 01:35:28;;;;;;;2.78;0.98;;;;;;;;;;5057056;28;20266;-46
2022/08/31 01:37:55;;;;;;;3.42;1.02;;;;;;;;;;5039969;28;20271;-47
2022/08/31 01:40:32;;;;;;;2.55;0.98;;;;;;;;;;5040097;28;20211;-47
2022/08/31 01:42:59;;;;;;;3.95;1.00;;;;;;;;;;5039451;28;20302;-53
2022/08/31 01:45:27;;;;;;;1.50;0.90;;;;;;;;;;5039835;28;20236;-51
2022/08/31 01:47:54;;;;;;;4.82;1.17;;;;;;;;;;5039351;28;20210;-48
2022/08/31 01:50:23;;;;;;;3.05;1.02;;;;;;;;;;5056741;28;20204;-49
2022/08/31 01:52:51;;;;;;;1.73;1.10;;;;;;;;;;5039691;28;20270;-50
2022/08/31 01:55:18;;;;;;;4.35;1.10;;;;;;;;;;5056604;28;20688;-47
2022/08/31 01:57:47;;;;;;;1.67;1.02;;;;;;;;;;5039461;28;20223;-47
2022/08/31 02:00:33;;;;;;;2.55;1.17;;;;;;;;;;5039428;28;20204;-48
2022/08/31 02:03:06;;;;;;;3.28;1.27;;;;;;;;;;5023236;28;20224;-47
2022/08/31 02:05:35;;;;;;;2.15;1.10;;;;;;;;;;5039141;28;20196;-47
2022/08/31 02:08:06;;;;;;;2.65;1.10;;;;;;;;;;5038964;28;20226;-48
2022/08/31 02:10:33;;;;;;;3.33;1.38;;;;;;;;;;5039094;28;20208;-48
2022/08/31 02:13:00;;;;;;;3.60;1.20;;;;;;;;;;5039176;28;20214;-47
2022/08/31 02:15:31;;;;;;;2.80;1.00;;;;;;;;;;5038104;28;20208;-46
2022/08/31 02:17:58;;;;;;;3.55;1.23;;;;;;;;;;5056203;28;20204;-52
2022/08/31 02:20:25;;;;;;;2.85;1.08;;;;;;;;;;5022843;28;20215;-46
2022/08/31 02:22:52;;;;;;;3.42;1.10;;;;;;;;;;5038649;28;20224;-49
2022/08/31 02:25:19;;;;;;;3.78;1.23;;;;;;;;;;5038529;28;20200;-47
2022/08/31 02:27:47;;;;;;;4.32;1.20;;;;;;;;;;5038936;28;20207;-49
2022/08/31 02:30:17;;;;;;;3.60;1.20;;;;;;;;;;5038568;28;20637;-49
2022/08/31 02:32:44;;;;;;;2.67;1.00;;;;;;;;;;5038764;28;20214;-48
2022/08/31 02:35:12;;;;;;;1.67;0.80;;;;;;;;;;5038697;28;20254;-49
2022/08/31 02:37:39;;;;;;;2.63;1.10;;;;;;;;;;5056118;28;20625;-51
2022/08/31 02:40:08;;;;;;;2.53;1.15;;;;;;;;;;5038319;28;20235;-48
2022/08/31 02:42:41;;;;;;;4.05;1.10;;;;;;;;;;5038578;28;20308;-52
2022/08/31 02:45:23;;;;;;;2.88;1.00;;;;;;;;;;5038365;28;20261;-47
2022/08/31 02:47:51;;;;;;;1.92;0.93;;;;;;;;;;5038524;28;20219;-53
2022/08/31 02:50:25;;;;;;;3.88;1.13;;;;;;;;;;5038436;28;20230;-47
2022/08/31 02:52:55;;;;;;;2.10;1.00;;;;;;;;;;5055806;28;20270;-49
2022/08/31 02:55:25;;;;;;;3.30;1.30;;;;;;;;;;5038102;28;20594;-52
2022/08/31 02:57:52;;;;;;;2.95;1.05;;;;;;;;;;5038336;28;20200;-52
2022/08/31 03:00:21;;;;;;;3.30;1.13;;;;;;;;;;5038073;28;20203;-50
2022/08/31 03:02:49;;;;;;;3.13;1.23;;;;;;;;;;5055437;28;20289;-53
2022/08/31 03:05:17;;;;;;;2.08;1.23;;;;;;;;;;5038094;28;20261;-47
2022/08/31 03:07:44;;;;;;;3.95;1.20;;;;;;;;;;5037802;28;20208;-51
2022/08/31 03:10:13;;;;;;;4.20;1.30;;;;;;;;;;5037563;28;20609;-47
2022/08/31 03:12:42;;;;;;;3.95;1.40;;;;;;;;;;5037895;28;20298;-48
2022/08/31 03:15:10;;;;;;;2.53;1.10;;;;;;;;;;5037798;28;20203;-52
2022/08/31 03:17:37;;;;;;;2.30;1.25;;;;;;;;;;5037408;28;20200;-46
2022/08/31 03:20:10;;;;;;;5.05;1.23;;;;;;;;;;5037665;28;20204;-50
2022/08/31 03:22:37;;;;;;;4.45;1.33;;;;;;;;;;5037280;28;20531;-47
2022/08/31 03:25:07;;;;;;;2.63;1.15;;;;;;;;;;5037438;28;20210;-46
2022/08/31 03:27:35;;;;;;;4.70;1.30;;;;;;;;;;5054597;28;20215;-46
2022/08/31 03:30:05;;;;;;;4.00;1.60;;;;;;;;;;5037455;28;20196;-47
2022/08/31 03:32:34;;;;;;;2.53;1.02;;;;;;;;;;5037682;28;20227;-48
2022/08/31 03:35:01;;;;;;;4.68;1.40;;;;;;;;;;5037482;28;20196;-46
2022/08/31 03:37:28;;;;;;;4.13;1.40;;;;;;;;;;5037425;28;20200;-48
2022/08/31 03:39:58;;;;;;;6.00;1.45;;;;;;;;;;5037404;28;20208;-46
2022/08/31 03:42:27;;;;;;;4.75;1.77;;;;;;;;;;5037184;28;20223;-47
2022/08/31 03:44:58;;;;;;;2.83;1.30;;;;;;;;;;5037303;28;20251;-47
2022/08/31 03:47:29;;;;;;;1.73;1.13;;;;;;;;;;5037294;28;20595;-47
2022/08/31 03:49:56;;;;;;;2.50;1.30;;;;;;;;;;5037227;28;20211;-48
2022/08/31 03:52:30;;;;;;;2.55;1.38;;;;;;;;;;5037294;28;20208;-47
2022/08/31 03:55:09;;;;;;;4.15;1.85;;;;;;;;;;5037288;28;20299;-47
2022/08/31 03:57:38;;;;;;;4.82;1.40;;;;;;;;;;5037275;28;20218;-48
2022/08/31 04:00:06;;;;;;;4.60;1.55;;;;;;;;;;5039813;28;20227;-49
2022/08/31 04:02:42;;;;;;;4.03;1.40;;;;;;;;;;5065062;28;20232;-49
2022/08/31 04:05:32;;;;;;;3.40;1.60;;;;;;;;;;5021860;28;20233;-55
2022/08/31 04:08:19;;;;;;;3.85;1.52;;;;;;;;;;5062044;28;20223;-49
2022/08/31 04:11:16;;;;;;;3.22;1.77;;;;;;;;;;5066397;28;20500;-48
2022/08/31 04:14:04;;;;;;;5.68;1.70;;;;;;;;;;5070557;28;20543;-47
2022/08/31 04:16:37;;;;;;;2.85;1.40;;;;;;;;;;5069580;28;20225;-49
2022/08/31 04:19:23;;;;;;;3.95;1.33;;;;;;;;;;5062535;28;20719;-48
2022/08/31 04:22:01;;;;;;;5.25;1.85;;;;;;;;;;5066159;28;20579;-54
2022/08/31 04:24:37;;;;;;;4.13;1.75;;;;;;;;;;5072970;28;20578;-49
2022/08/31 04:27:04;;;;;;;4.00;1.60;;;;;;;;;;5072835;28;20226;-46
2022/08/31 04:29:31;;;;;;;3.90;1.75;;;;;;;;;;5073784;28;20223;-49
2022/08/31 04:31:59;;;;;;;4.05;1.63;;;;;;;;;;5072521;28;20234;-48
2022/08/31 04:34:26;;;;;;;2.53;1.55;;;;;;;;;;5072879;28;20596;-48
2022/08/31 04:36:53;;;;;;;2.58;1.30;;;;;;;;;;5072607;28;20223;-47
2022/08/31 04:39:22;;;;;;;3.80;1.50;;;;;;;;;;5073503;28;20219;-48
2022/08/31 04:41:49;;;;;;;6.18;1.40;;;;;;;;;;5067797;28;20318;-56
2022/08/31 04:44:18;;;;;;;5.63;1.65;;;;;;;;;;5076456;28;20263;-50
2022/08/31 04:46:54;;;;;;;2.15;1.48;;;;;;;;;;5072395;28;20690;-47
2022/08/31 04:49:21;;;;;;;3.58;1.40;;;;;;;;;;5076435;28;20288;-52
2022/08/31 04:51:48;;;;;;;4.50;1.58;;;;;;;;;;5076617;28;20554;-51
2022/08/31 04:54:15;;;;;;;2.75;1.60;;;;;;;;;;5064999;28;20229;-48
2022/08/31 04:56:44;;;;;;;2.78;1.30;;;;;;;;;;5059103;28;20231;-51
2022/08/31 04:59:24;;;;;;;4.18;1.80;;;;;;;;;;5060437;28;20546;-47
2022/08/31 05:02:10;;;;;;;4.22;1.48;;;;;;;;;;5078769;28;20221;-47
2022/08/31 05:04:41;;;;;;;2.58;1.40;;;;;;;;;;5060506;28;20231;-48
2022/08/31 05:07:08;;;;;;;4.18;1.50;;;;;;;;;;5060683;28;20203;-47
2022/08/31 05:09:35;;;;;;;4.53;1.35;;;;;;;;;;5060358;28;20200;-55
2022/08/31 05:12:03;;;;;;;3.90;1.75;;;;;;;;;;5060455;28;20203;-52
2022/08/31 05:14:30;;;;;;;4.35;1.60;;;;;;;;;;5060479;28;20264;-55
2022/08/31 05:17:01;;;;;;;2.35;1.38;;;;;;;;;;5060740;28;20522;-50
2022/08/31 05:19:30;;;;;;;3.38;1.75;;;;;;;;;;5060219;28;20214;-49
2022/08/31 05:21:58;;;;;;;2.58;1.40;;;;;;;;;;5060167;28;20616;-49
2022/08/31 05:24:25;;;;;;;3.50;1.67;;;;;;;;;;5059707;28;20268;-48
2022/08/31 05:26:54;;;;;;;2.80;1.55;;;;;;;;;;5060115;28;20203;-47
2022/08/31 05:29:23;;;;;;;4.03;1.60;;;;;;;;;;5059501;28;20215;-53
2022/08/31 05:32:04;;;;;;;3.53;1.70;;;;;;;;;;5060026;28;20245;-50
2022/08/31 05:34:31;;;;;;;5.82;1.63;;;;;;;;;;5077234;28;20257;-52
2022/08/31 05:36:58;;;;;;;3.25;1.42;;;;;;;;;;5077290;28;20203;-49
2022/08/31 05:39:29;;;;;;;4.63;1.60;;;;;;;;;;5059545;28;20516;-57
2022/08/31 05:41:56;;;;;;;4.75;1.48;;;;;;;;;;5059710;28;20203;-51
2022/08/31 05:44:25;;;;;;;3.08;1.35;;;;;;;;;;5077296;28;20352;-54
2022/08/31 05:46:56;;;;;;;4.00;1.52;;;;;;;;;;5059634;28;20264;-51
2022/08/31 05:49:30;;;;;;;5.05;1.90;;;;;;;;;;5059636;28;20203;-48
2022/08/31 05:51:59;;;;;;;2.92;1.40;;;;;;;;;;5059334;28;20195;-55
2022/08/31 05:54:28;;;;;;;3.67;1.73;;;;;;;;;;5059507;28;20208;-51
2022/08/31 05:56:55;;;;;;;3.60;1.27;;;;;;;;;;5059145;28;20541;-52
2022/08/31 05:59:29;;;;;;;4.45;1.60;;;;;;;;;;5059035;28;20198;-48
2022/08/31 06:01:58;;;;;;;3.35;1.40;;;;;;;;;;5056753;28;20214;-55
2022/08/31 06:04:27;;;;;;;6.72;1.30;;;;;;;;;;5054779;28;20247;-57
2022/08/31 06:06:54;;;;;;;4.95;1.40;;;;;;;;;;5057498;28;20203;-56
2022/08/31 06:09:25;;;;;;;2.95;1.40;;;;;;;;;;5058144;28;20187;-56
2022/08/31 06:11:53;;;;;;;2.90;1.25;;;;;;;;;;5055705;28;20208;-57
2022/08/31 06:14:21;;;;;;;5.68;1.27;;;;;;;;;;5038328;28;20219;-57
2022/08/31 06:16:49;;;;;;;5.40;1.58;;;;;;;;;;5041209;28;20630;-57
2022/08/31 06:19:18;;;;;;;5.32;1.30;;;;;;;;;;5038535;28;20204;-57
2022/08/31 06:21:50;;;;;;;4.30;1.08;;;;;;;;;;5038781;28;20283;-58
2022/08/31 06:24:25;;;;;;;3.13;1.40;;;;;;;;;;5038073;28;20230;-56
2022/08/31 06:26:55;;;;;;;4.03;1.52;;;;;;;;;;5038229;28;20204;-57
2022/08/31 06:29:32;;;;;;;4.88;1.30;;;;;;;;;;5038061;28;20554;-58
2022/08/31 06:32:04;;;;;;;2.65;1.70;;;;;;;;;;5038569;28;20265;-57
2022/08/31 06:34:32;;;;;;;4.85;1.50;;;;;;;;;;5037210;28;20199;-58
2022/08/31 06:37:08;;;;;;;3.88;1.90;;;;;;;;;;5037974;28;20515;-57
2022/08/31 06:40:18;;;;;;;2.78;1.38;;;;;;;;;;5038051;28;20642;-58
2022/08/31 06:43:04;;;;;;;4.55;2.03;;;;;;;;;;5055462;28;20203;-57
2022/08/31 06:45:47;;;;;;;4.40;1.30;;;;;;;;;;5038285;28;20192;-57
2022/08/31 06:48:33;;;;;;;5.13;1.48;;;;;;;;;;5040800;28;20200;-58
2022/08/31 06:51:01;;;;;;;3.20;1.25;;;;;;;;;;5055234;28;20212;-57
2022/08/31 06:53:28;;;;;;;3.05;1.58;;;;;;;;;;5037086;28;20207;-57
2022/08/31 06:56:24;;;;;;;5.47;1.20;;;;;;;;;;5041312;28;20215;-56
2022/08/31 06:59:20;;;;;;;1.85;1.13;;;;;;;;;;5054289;28;20218;-56
2022/08/31 07:02:02;;;;;;;5.10;1.40;;;;;;;;;;5037019;28;20207;-57
2022/08/31 07:04:32;;;;;;;2.92;1.50;;;;;;;;;;5054551;28;20228;-57
2022/08/31 07:06:59;;;;;;;4.95;1.38;;;;;;;;;;5037161;28;20207;-57
2022/08/31 07:09:27;;;;;;;3.35;1.15;;;;;;;;;;5035683;28;20359;-58
2022/08/31 07:11:54;;;;;;;5.32;1.55;;;;;;;;;;5054255;28;20228;-57
2022/08/31 07:14:24;;;;;;;3.65;1.50;;;;;;;;;;5053009;28;20527;-57
2022/08/31 07:16:55;;;;;;;4.70;1.65;;;;;;;;;;5037049;28;20191;-56
2022/08/31 07:19:22;;;;;;;3.20;1.25;;;;;;;;;;5036865;28;20206;-57
2022/08/31 07:21:55;;;;;;;2.83;1.20;;;;;;;;;;5037494;28;20207;-57
2022/08/31 07:24:27;;;;;;;4.38;1.08;;;;;;;;;;5037367;28;20219;-56
2022/08/31 07:27:03;;;;;;;2.33;1.00;;;;;;;;;;5037379;28;20597;-57
2022/08/31 07:29:58;;;;;;;2.55;1.20;;;;;;;;;;5051108;28;20263;-57
2022/08/31 07:32:30;;;;;;;2.45;1.20;;;;;;;;;;5036266;28;20200;-57
2022/08/31 07:34:59;;;;;;;1.90;0.82;;;;;;;;;;5037112;28;20214;-57
2022/08/31 07:43:08;;;;;;;2.25;1.15;;;;;;;;;;5036435;28;20188;-57
2022/08/31 07:45:38;;;;;;;1.30;0.65;;;;;;;;;;5035965;28;20250;-57
2022/08/31 07:48:07;;;;;;;3.83;1.25;;;;;;;;;;5036718;28;20203;-57
2022/08/31 07:50:45;;;;;;;2.50;0.88;;;;;;;;;;5036274;28;20277;-57
2022/08/31 07:53:41;;;;;;;2.25;1.17;;;;;;;;;;5035393;28;20258;-57
2022/08/31 07:56:30;;;;;;;2.95;0.95;;;;;;;;;;5036242;28;20200;-57
2022/08/31 07:59:13;;;;;;;4.47;1.13;;;;;;;;;;5037489;28;20278;-58
2022/08/31 08:01:43;;;;;;;2.17;0.98;;;;;;;;;;5019671;28;20218;-56
2022/08/31 08:04:20;;;;;;;1.58;0.82;;;;;;;;;;5036957;28;20311;-57
2022/08/31 08:06:54;;;;;;;2.05;0.90;;;;;;;;;;5052437;28;20180;-57
2022/08/31 08:09:53;;;;;;;1.40;0.80;;;;;;;;;;5052739;28;20539;-57
2022/08/31 08:12:42;;;;;;;3.90;1.10;;;;;;;;;;5036653;28;20207;-57
2022/08/31 08:15:17;;;;;;;1.48;0.90;;;;;;;;;;5039751;28;20198;-57
2022/08/31 08:18:11;;;;;;;2.88;1.05;;;;;;;;;;5053831;28;20211;-58
2022/08/31 08:20:44;;;;;;;2.22;1.00;;;;;;;;;;5060993;28;20595;-56
2022/08/31 08:23:14;;;;;;;1.13;0.73;;;;;;;;;;5060983;28;20222;-57
2022/08/31 08:25:45;;;;;;;2.55;1.02;;;;;;;;;;5078187;28;20310;-56
2022/08/31 08:28:36;;;;;;;2.72;0.98;;;;;;;;;;5031982;28;20199;-57
2022/08/31 08:31:17;;;;;;;2.53;0.80;;;;;;;;;;5060526;28;20647;-57
2022/08/31 08:33:44;;;;;;;4.95;0.90;;;;;;;;;;5076903;28;20199;-58
2022/08/31 08:36:17;;;;;;;1.63;0.80;;;;;;;;;;5054126;28;20306;-57
2022/08/31 08:38:47;;;;;;;2.75;1.00;;;;;;;;;;5056151;28;20185;-59
2022/08/31 08:41:18;;;;;;;1.35;0.80;;;;;;;;;;5039350;28;20204;-57
2022/08/31 08:43:51;;;;;;;1.42;0.77;;;;;;;;;;5030704;28;20235;-59
2022/08/31 08:46:33;;;;;;;2.33;0.90;;;;;;;;;;5024438;28;20223;-58
2022/08/31 08:49:12;;;;;;;1.95;0.85;;;;;;;;;;5038910;28;20192;-57
2022/08/31 08:51:40;;;;;;;2.97;0.88;;;;;;;;;;5023288;28;20199;-58
2022/08/31 08:54:13;;;;;;;3.45;0.98;;;;;;;;;;5024025;28;20204;-57
2022/08/31 08:56:47;;;;;;;2.35;0.80;;;;;;;;;;5040094;28;20196;-57
2022/08/31 08:59:18;;;;;;;2.67;1.13;;;;;;;;;;5040129;28;20200;-57
2022/08/31 09:01:51;;;;;;;2.83;0.73;;;;;;;;;;5057280;28;20283;-57
2022/08/31 09:04:46;;;;;;;1.25;0.70;;;;;;;;;;5039277;28;20216;-58
2022/08/31 09:07:38;;;;;;;1.70;0.70;;;;;;;;;;5039144;28;20187;-58
2022/08/31 09:10:20;;;;;;;2.53;0.60;;;;;;;;;;5040122;28;20283;-56
2022/08/31 09:13:14;;;;;;;3.08;0.60;;;;;;;;;;5057296;28;20192;-56
2022/08/31 09:15:55;;;;;;;1.30;0.70;;;;;;;;;;5038704;28;20668;-57
2022/08/31 09:18:37;;;;;;;0.68;0.40;;;;;;;;;;5023892;28;20196;-57
2022/08/31 09:21:22;;;;;;;0.65;0.40;;;;;;;;;;5039452;28;20548;-57
2022/08/31 09:24:19;;;;;;;3.17;0.60;;;;;;;;;;5038033;28;20234;-57
2022/08/31 09:27:19;;;;;;;3.67;0.40;;;;;;;;;;5050465;28;20295;-57
2022/08/31 09:30:00;;;;;;;1.58;0.80;;;;;;;;;;5057013;28;20199;-57
2022/08/31 09:32:30;;;;;;;1.50;0.60;;;;;;;;;;5055500;28;20185;-59
2022/08/31 09:35:08;;;;;;;1.08;0.52;;;;;;;;;;5057007;28;20208;-58
2022/08/31 09:37:45;;;;;;;1.30;0.60;;;;;;;;;;5056916;28;20242;-58
2022/08/31 09:40:19;;;;;;;1.30;0.70;;;;;;;;;;5056832;28;20600;-57
2022/08/31 09:43:12;;;;;;;1.08;0.47;;;;;;;;;;5057040;28;20246;-55
2022/08/31 09:46:01;;;;;;;1.00;0.60;;;;;;;;;;5055798;28;20652;-57
2022/08/31 09:48:54;;;;;;;2.10;0.60;;;;;;;;;;5056582;28;20275;-58
2022/08/31 09:51:36;;;;;;;1.88;0.50;;;;;;;;;;5056535;28;20184;-57
2022/08/31 09:57:06;;;;;;;147.90;70.95;;;;;;;;;;5056342;28;20271;-57
2022/08/31 09:59:38;;;;;;;15.52;4.55;;;;;;;;;;5039526;28;20192;-57
2022/08/31 10:02:08;;;;;;;33.13;12.85;;;;;;;;;;5056581;28;20188;-57
2022/08/31 10:04:49;;;;;;;156.10;93.50;;;;;;;;;;5056484;28;20227;-57
2022/08/31 10:07:40;;;;;;;2.05;1.63;;;;;;;;;;5056187;28;20254;-58
2022/08/31 10:10:15;;;;;;;0.82;0.65;;;;;;;;;;5056090;28;20299;-57
2022/08/31 10:13:14;;;;;;;1.45;0.70;;;;;;;;;;5056508;28;20193;-58
2022/08/31 10:15:58;;;;;;;1.42;0.60;;;;;;;;;;5056258;28;20690;-57
2022/08/31 10:18:42;;;;;;;1.80;0.40;;;;;;;;;;5042082;28;20204;-58
2022/08/31 10:21:20;;;;;;;3.03;0.70;;;;;;;;;;5039850;28;20212;-58
2022/08/31 10:23:55;;;;;;;1.55;0.75;;;;;;;;;;5039517;28;20196;-57
2022/08/31 10:26:35;;;;;;;1.38;0.70;;;;;;;;;;5039475;28;20219;-58
2022/08/31 10:29:12;;;;;;;0.88;0.60;;;;;;;;;;5057659;28;20211;-57
2022/08/31 10:31:51;;;;;;;1.13;0.55;;;;;;;;;;5059575;28;20278;-58
2022/08/31 10:37:32;;;;;;;0.75;0.47;;;;;;;;;;5058054;28;20644;-58
2022/08/31 10:40:16;;;;;;;0.75;0.52;;;;;;;;;;5075941;28;20261;-57
2022/08/31 10:43:08;;;;;;;1.73;0.75;;;;;;;;;;5058852;28;20266;-58
2022/08/31 10:45:40;;;;;;;2.53;0.70;;;;;;;;;;5075930;28;20547;-58
2022/08/31 10:48:09;;;;;;;0.98;0.60;;;;;;;;;;5075166;28;20184;-58
2022/08/31 10:51:04;;;;;;;0.80;0.50;;;;;;;;;;5075485;28;20520;-57
2022/08/31 10:53:51;;;;;;;1.35;0.65;;;;;;;;;;5049259;28;20231;-58
2022/08/31 10:56:32;;;;;;;1.95;0.60;;;;;;;;;;5058330;28;20187;-57
2022/08/31 10:59:18;;;;;;;0.55;0.40;;;;;;;;;;5058123;28;20662;-57
2022/08/31 11:02:22;;;;;;;1.42;0.63;;;;;;;;;;5056402;28;20191;-58
2022/08/31 11:05:13;;;;;;;1.70;0.50;;;;;;;;;;5073558;28;20233;-58
2022/08/31 11:07:54;;;;;;;3.92;0.75;;;;;;;;;;5058399;28;20203;-58
2022/08/31 11:10:47;;;;;;;1.05;0.40;;;;;;;;;;5057947;28;20252;-57
2022/08/31 11:13:37;;;;;;;0.90;0.50;;;;;;;;;;5074088;28;20183;-57
2022/08/31 11:16:12;;;;;;;8.10;0.63;;;;;;;;;;5075391;28;20206;-56
2022/08/31 11:19:09;;;;;;;2.17;0.60;;;;;;;;;;5074788;28;20179;-58
2022/08/31 11:22:15;;;;;;;1.90;0.38;;;;;;;;;;5074666;28;20287;-58
2022/08/31 11:24:57;;;;;;;0.63;0.55;;;;;;;;;;5004705;28;20223;-57
2022/08/31 11:27:26;;;;;;;1.17;0.50;;;;;;;;;;5054497;28;20282;-57
2022/08/31 11:29:59;;;;;;;1.08;0.50;;;;;;;;;;5037478;28;20211;-58
2022/08/31 11:32:36;;;;;;;1.73;0.60;;;;;;;;;;5054612;28;20192;-57
2022/08/31 11:35:09;;;;;;;1.10;0.50;;;;;;;;;;5037465;28;20188;-58
2022/08/31 11:37:51;;;;;;;1.67;0.50;;;;;;;;;;5052620;28;20199;-58
2022/08/31 11:40:40;;;;;;;2.03;0.50;;;;;;;;;;5074788;28;20500;-59
2022/08/31 11:43:13;;;;;;;1.10;0.60;;;;;;;;;;5074865;28;20187;-59
2022/08/31 11:45:41;;;;;;;1.08;0.50;;;;;;;;;;5074343;28;20235;-58
2022/08/31 11:48:49;;;;;;;1.20;0.70;;;;;;;;;;5074067;28;20218;-58
2022/08/31 11:51:40;;;;;;;0.95;0.50;;;;;;;;;;5074430;28;20585;-59
2022/08/31 11:54:13;;;;;;;1.05;0.40;;;;;;;;;;5074334;28;20188;-58
2022/08/31 11:56:43;;;;;;;2.88;0.55;;;;;;;;;;5074810;28;20187;-59
2022/08/31 11:59:29;;;;;;;1.40;0.50;;;;;;;;;;5074540;28;20203;-59
2022/08/31 12:02:18;;;;;;;2.85;0.60;;;;;;;;;;5073989;28;20199;-59
2022/08/31 12:04:51;;;;;;;1.08;0.55;;;;;;;;;;5071175;28;20682;-59
2022/08/31 12:07:34;;;;;;;1.05;0.60;;;;;;;;;;5074166;28;20538;-59
2022/08/31 12:10:07;;;;;;;1.00;0.50;;;;;;;;;;5073379;28;20197;-59
2022/08/31 12:13:02;;;;;;;0.93;0.43;;;;;;;;;;5074622;28;20180;-59
2022/08/31 12:15:59;;;;;;;0.77;0.55;;;;;;;;;;5072178;28;20202;-58
2022/08/31 12:18:42;;;;;;;0.65;0.40;;;;;;;;;;5053687;28;20191;-59
2022/08/31 12:24:38;;;;;;;1.55;0.40;;;;;;;;;;5037829;28;20196;-59
2022/08/31 12:27:46;;;;;;;1.95;0.60;;;;;;;;;;5060335;28;20295;-58
2022/08/31 12:30:21;;;;;;;0.80;0.60;;;;;;;;;;5036039;28;20624;-57
2022/08/31 12:33:12;;;;;;;1.52;0.63;;;;;;;;;;5053987;28;20288;-57
2022/08/31 12:35:39;;;;;;;2.42;0.50;;;;;;;;;;5061297;28;20277;-55
2022/08/31 12:38:09;;;;;;;2.15;0.50;;;;;;;;;;5061340;28;20676;-57
2022/08/31 12:40:44;;;;;;;0.88;0.60;;;;;;;;;;5064662;28;20266;-57
2022/08/31 12:43:33;;;;;;;3.45;0.50;;;;;;;;;;5055486;28;20219;-57
2022/08/31 12:46:12;;;;;;;0.73;0.43;;;;;;;;;;5041694;28;20240;-57
2022/08/31 12:48:42;;;;;;;0.45;0.32;;;;;;;;;;5070373;28;20230;-57
2022/08/31 12:51:43;;;;;;;1.13;0.50;;;;;;;;;;5052717;28;20569;-57
2022/08/31 12:54:19;;;;;;;1.02;0.52;;;;;;;;;;5036012;28;20242;-57
2022/08/31 12:57:26;;;;;;;3.10;0.70;;;;;;;;;;5052985;28;20267;-57
2022/08/31 13:00:08;;;;;;;2.53;0.68;;;;;;;;;;5051450;28;20240;-57
2022/08/31 13:02:41;;;;;;;41.47;26.73;;;;;;;;;;5056608;28;20293;-57
2022/08/31 13:05:34;;;;;;;2.33;1.10;;;;;;;;;;5056680;28;20243;-57
2022/08/31 13:08:18;;;;;;;2.08;0.73;;;;;;;;;;5056578;28;20236;-57
2022/08/31 13:10:45;;;;;;;0.60;0.50;;;;;;;;;;5076710;28;20223;-57
2022/08/31 13:13:21;;;;;;;1.73;1.20;;;;;;;;;;5076407;28;20663;-57
2022/08/31 13:15:48;;;;;;;5.05;1.75;;;;;;;;;;5067820;28;20230;-57
2022/08/31 13:18:21;;;;;;;4.05;1.92;;;;;;;;;;5066202;28;20239;-57
2022/08/31 13:20:53;;;;;;;2.83;1.63;;;;;;;;;;5039262;28;20231;-56
2022/08/31 13:23:29;;;;;;;0.60;0.47;;;;;;;;;;5055376;28;20224;-55
2022/08/31 13:26:02;;;;;;;1.75;0.60;;;;;;;;;;5038389;28;20235;-56
2022/08/31 13:28:33;;;;;;;2.63;0.60;;;;;;;;;;5055645;28;20246;-56
2022/08/31 13:31:03;;;;;;;2.42;0.70;;;;;;;;;;5067264;28;20227;-57
2022/08/31 13:33:33;;;;;;;2.42;0.50;;;;;;;;;;5073267;28;20227;-57
2022/08/31 13:36:08;;;;;;;4.55;0.80;;;;;;;;;;5056553;28;20234;-58
2022/08/31 13:38:45;;;;;;;3.55;0.80;;;;;;;;;;5073987;28;20237;-57
2022/08/31 13:41:37;;;;;;;0.93;0.57;;;;;;;;;;5057308;28;20238;-57
2022/08/31 13:44:07;;;;;;;1.50;0.70;;;;;;;;;;5056841;28;20350;-57
2022/08/31 13:46:37;;;;;;;3.42;0.85;;;;;;;;;;5051451;28;20228;-57
2022/08/31 13:49:24;;;;;;;2.25;0.80;;;;;;;;;;5039099;28;20612;-57
2022/08/31 13:51:52;;;;;;;1.25;0.60;;;;;;;;;;5038956;28;20655;-56
2022/08/31 13:54:31;;;;;;;2.28;0.60;;;;;;;;;;5055969;28;20258;-57
2022/08/31 13:57:34;;;;;;;1.75;0.52;;;;;;;;;;5056086;28;20219;-56
2022/08/31 14:00:25;;;;;;;94.72;59.72;;;;;;;;;;4939828;28;20315;-57
2022/08/31 14:02:54;;;;;;;35.92;19.40;;;;;;;;;;4954928;29;20298;-51
2022/08/31 14:05:29;;;;;;;9.93;6.50;;;;;;;;;;4939727;29;20575;-48
2022/08/31 14:08:00;;;;;;;5.43;3.20;;;;;;;;;;4977714;28;20221;-50
2022/08/31 14:10:37;;;;;;;3.97;2.20;;;;;;;;;;4977744;28;20260;-49
2022/08/31 14:13:13;;;;;;;2.70;0.63;;;;;;;;;;4969266;28;20219;-52
2022/08/31 14:15:53;;;;;;;3.97;1.75;;;;;;;;;;4955690;28;20287;-49
2022/08/31 14:18:28;;;;;;;2.10;1.17;;;;;;;;;;4975513;28;20226;-50
2022/08/31 14:21:04;;;;;;;2.72;0.80;;;;;;;;;;4975266;28;20651;-52
2022/08/31 14:23:52;;;;;;;3.35;0.70;;;;;;;;;;4975050;28;20237;-49
2022/08/31 14:26:24;;;;;;;0.80;0.52;;;;;;;;;;4975160;28;20277;-52
2022/08/31 14:28:59;;;;;;;1.65;0.57;;;;;;;;;;4975088;28;20312;-49
2022/08/31 14:31:44;;;;;;;1.35;0.60;;;;;;;;;;4975506;28;20246;-48
2022/08/31 14:34:18;;;;;;;0.93;0.57;;;;;;;;;;4975611;28;20210;-56
2022/08/31 14:37:02;;;;;;;1.13;0.68;;;;;;;;;;5054397;28;20207;-53
2022/08/31 14:39:34;;;;;;;1.10;0.60;;;;;;;;;;5056087;28;20208;-55
2022/08/31 14:42:10;;;;;;;1.20;0.52;;;;;;;;;;5063057;28;20291;-56
2022/08/31 14:44:40;;;;;;;2.78;0.70;;;;;;;;;;5076081;28;20284;-57
2022/08/31 14:47:08;;;;;;;0.90;0.60;;;;;;;;;;5050198;28;20652;-57
2022/08/31 14:49:35;;;;;;;0.88;0.57;;;;;;;;;;5055719;28;20196;-57
2022/08/31 14:52:05;;;;;;;4.47;0.60;;;;;;;;;;5054411;28;20219;-57
2022/08/31 14:54:35;;;;;;;1.23;0.60;;;;;;;;;;5055282;28;20214;-58
2022/08/31 14:57:23;;;;;;;1.65;0.55;;;;;;;;;;5054856;28;20230;-57
2022/08/31 14:59:56;;;;;;;1.98;0.60;;;;;;;;;;5037737;28;20743;-57
2022/08/31 15:02:26;;;;;;;2.30;1.10;;;;;;;;;;5037944;28;20195;-57
2022/08/31 15:05:00;;;;;;;1.38;0.75;;;;;;;;;;5054522;28;20208;-58
2022/08/31 15:07:30;;;;;;;2.35;0.60;;;;;;;;;;5054686;28;20286;-56
2022/08/31 15:09:58;;;;;;;5.10;0.60;;;;;;;;;;5055222;28;20188;-56
2022/08/31 15:12:25;;;;;;;1.27;0.50;;;;;;;;;;5054992;28;20210;-57
2022/08/31 15:14:58;;;;;;;1.85;0.73;;;;;;;;;;5055366;28;20218;-58
2022/08/31 15:17:27;;;;;;;2.03;0.75;;;;;;;;;;5053775;28;20320;-58
2022/08/31 15:19:56;;;;;;;1.13;0.68;;;;;;;;;;5054579;28;20302;-57
2022/08/31 15:22:25;;;;;;;2.47;0.50;;;;;;;;;;5054763;28;20218;-56
2022/08/31 15:24:52;;;;;;;138.45;52.45;;;;;;;;;;5054473;28;20278;-57
2022/08/31 15:27:21;;;;;;;276.85;102.90;;;;;;;;;;5054424;28;20230;-57
2022/08/31 15:29:50;;;;;;;68.70;26.50;;;;;;;;;;5053586;28;20200;-57
2022/08/31 15:32:17;;;;;;;28.58;11.13;;;;;;;;;;5054862;28;20207;-55
2022/08/31 15:34:52;;;;;;;6.75;2.90;;;;;;;;;;5054627;28;20216;-58
2022/08/31 15:37:20;;;;;;;13.73;7.35;;;;;;;;;;5054132;28;20195;-57
2022/08/31 15:39:47;;;;;;;3.00;0.80;;;;;;;;;;5059188;28;20210;-57
2022/08/31 15:42:19;;;;;;;2.20;1.02;;;;;;;;;;5075099;28;20211;-51
2022/08/31 15:44:56;;;;;;;6.70;2.42;;;;;;;;;;5074740;28;20243;-57
2022/08/31 15:50:17;;;;;;;3.45;1.73;;;;;;;;;;5075091;28;20202;-57
2022/08/31 15:52:46;;;;;;;12.30;3.10;;;;;;;;;;5075160;28;20269;-57